Terminal Aerodrome Forecast
Issued by NWS Mt. Holly, NJ

Home | Current Version | Previous Version | Text Only | Print | Product List | Glossary On
Versions: 1 2 3 4 5 6 7 8 9 10 11 12 13 14 15 16 17 18 19 20 21
460
FTUS41 KPHI 280521
TAFACY
TAF
KACY 280521Z 2806/0106 VRB03KT P6SM OVC100
     FM281800 19007KT P6SM BKN250
     FM010200 17008KT 3SM -SHRA BR BKN020
     FM010500 17009KT 2SM -SHRA BR BKN008 WS020/20040KT=

USA.gov is the U.S. government's official web portal to all federal, state and local government web resources and services.